sensor_id;sensor_type;location;lat;lon;timestamp;temperature;humidity
8220;DHT22;4151;51.110;7.020;2023-05-07T00:01:44;14.20;99.90
8220;DHT22;4151;51.110;7.020;2023-05-07T00:04:10;14.20;99.90
8220;DHT22;4151;51.110;7.020;2023-05-07T00:06:36;14.10;99.90
8220;DHT22;4151;51.110;7.020;2023-05-07T00:09:02;14.10;99.90
8220;DHT22;4151;51.110;7.020;2023-05-07T00:11:28;14.10;99.90
8220;DHT22;4151;51.110;7.020;2023-05-07T00:13:53;14.10;99.90
8220;DHT22;4151;51.110;7.020;2023-05-07T00:16:19;14.10;99.90
8220;DHT22;4151;51.110;7.020;2023-05-07T00:18:45;14.10;99.90
8220;DHT22;4151;51.110;7.020;2023-05-07T00:21:11;14.10;99.90
8220;DHT22;4151;51.110;7.020;2023-05-07T00:23:36;14.10;99.90
8220;DHT22;4151;51.110;7.020;2023-05-07T00:26:03;14.10;99.90
8220;DHT22;4151;51.110;7.020;2023-05-07T00:28:28;14.10;99.90
8220;DHT22;4151;51.110;7.020;2023-05-07T00:30:54;14.00;99.90
8220;DHT22;4151;51.110;7.020;2023-05-07T00:33:20;14.00;99.90
8220;DHT22;4151;51.110;7.020;2023-05-07T00:35:46;13.90;99.90
8220;DHT22;4151;51.110;7.020;2023-05-07T00:38:12;14.00;99.90
8220;DHT22;4151;51.110;7.020;2023-05-07T00:40:37;14.00;99.90
8220;DHT22;4151;51.110;7.020;2023-05-07T00:43:03;14.00;99.90
8220;DHT22;4151;51.110;7.020;2023-05-07T00:45:29;14.00;99.90
8220;DHT22;4151;51.110;7.020;2023-05-07T00:47:59;14.00;99.90
8220;DHT22;4151;51.110;7.020;2023-05-07T00:50:26;14.00;99.90
8220;DHT22;4151;51.110;7.020;2023-05-07T00:52:53;14.00;99.90
8220;DHT22;4151;51.110;7.020;2023-05-07T00:55:19;14.00;99.90
8220;DHT22;4151;51.110;7.020;2023-05-07T00:57:45;14.00;99.90
8220;DHT22;4151;51.110;7.020;2023-05-07T01:00:11;14.00;99.90
8220;DHT22;4151;51.110;7.020;2023-05-07T01:02:40;14.00;99.90
8220;DHT22;4151;51.110;7.020;2023-05-07T01:05:09;14.00;99.90
8220;DHT22;4151;51.110;7.020;2023-05-07T01:07:35;14.00;99.90
8220;DHT22;4151;51.110;7.020;2023-05-07T01:10:02;14.00;99.90
8220;DHT22;4151;51.110;7.020;2023-05-07T01:12:28;14.00;99.90
8220;DHT22;4151;51.110;7.020;2023-05-07T01:14:55;13.90;99.90
8220;DHT22;4151;51.110;7.020;2023-05-07T01:17:20;13.90;99.90
8220;DHT22;4151;51.110;7.020;2023-05-07T01:19:46;14.00;99.90
8220;DHT22;4151;51.110;7.020;2023-05-07T01:22:15;14.00;99.90
8220;DHT22;4151;51.110;7.020;2023-05-07T01:24:42;14.00;99.90
8220;DHT22;4151;51.110;7.020;2023-05-07T01:27:08;14.00;99.90
8220;DHT22;4151;51.110;7.020;2023-05-07T01:29:33;13.90;99.90
8220;DHT22;4151;51.110;7.020;2023-05-07T01:32:00;14.10;99.90
8220;DHT22;4151;51.110;7.020;2023-05-07T01:34:28;14.00;99.90
8220;DHT22;4151;51.110;7.020;2023-05-07T01:36:56;13.90;99.90
8220;DHT22;4151;51.110;7.020;2023-05-07T01:39:27;13.90;99.90
8220;DHT22;4151;51.110;7.020;2023-05-07T01:41:57;13.90;99.90
8220;DHT22;4151;51.110;7.020;2023-05-07T01:44:23;13.90;99.90
8220;DHT22;4151;51.110;7.020;2023-05-07T01:46:49;13.90;99.90
8220;DHT22;4151;51.110;7.020;2023-05-07T01:49:16;13.90;99.90
8220;DHT22;4151;51.110;7.020;2023-05-07T01:51:42;14.00;99.90
8220;DHT22;4151;51.110;7.020;2023-05-07T01:54:08;14.00;99.90
8220;DHT22;4151;51.110;7.020;2023-05-07T01:56:34;14.10;99.90
8220;DHT22;4151;51.110;7.020;2023-05-07T01:59:00;14.10;99.90
8220;DHT22;4151;51.110;7.020;2023-05-07T02:01:25;14.10;99.90
8220;DHT22;4151;51.110;7.020;2023-05-07T02:03:51;14.20;99.90
8220;DHT22;4151;51.110;7.020;2023-05-07T02:06:17;14.20;99.90
8220;DHT22;4151;51.110;7.020;2023-05-07T02:08:42;14.20;99.90
8220;DHT22;4151;51.110;7.020;2023-05-07T02:11:08;14.30;99.90
8220;DHT22;4151;51.110;7.020;2023-05-07T02:13:34;14.30;99.90
8220;DHT22;4151;51.110;7.020;2023-05-07T02:16:00;14.30;99.90
8220;DHT22;4151;51.110;7.020;2023-05-07T02:18:26;14.30;99.90
8220;DHT22;4151;51.110;7.020;2023-05-07T02:20:52;14.30;99.90
8220;DHT22;4151;51.110;7.020;2023-05-07T02:23:17;14.30;99.90
8220;DHT22;4151;51.110;7.020;2023-05-07T02:25:43;14.30;99.90
8220;DHT22;4151;51.110;7.020;2023-05-07T02:28:08;14.30;99.90
8220;DHT22;4151;51.110;7.020;2023-05-07T02:30:36;14.30;99.90
8220;DHT22;4151;51.110;7.020;2023-05-07T02:33:02;14.30;99.90
8220;DHT22;4151;51.110;7.020;2023-05-07T02:35:28;14.20;99.90
8220;DHT22;4151;51.110;7.020;2023-05-07T02:37:53;14.20;99.90
8220;DHT22;4151;51.110;7.020;2023-05-07T02:40:19;14.10;99.90
8220;DHT22;4151;51.110;7.020;2023-05-07T02:42:45;14.00;99.90
8220;DHT22;4151;51.110;7.020;2023-05-07T02:45:10;13.90;99.90
8220;DHT22;4151;51.110;7.020;2023-05-07T02:47:36;13.80;99.90
8220;DHT22;4151;51.110;7.020;2023-05-07T02:50:02;13.70;99.90
8220;DHT22;4151;51.110;7.020;2023-05-07T02:52:28;13.50;99.90
8220;DHT22;4151;51.110;7.020;2023-05-07T02:54:53;13.40;99.90
8220;DHT22;4151;51.110;7.020;2023-05-07T02:57:19;13.30;99.90
8220;DHT22;4151;51.110;7.020;2023-05-07T02:59:44;13.20;99.90
8220;DHT22;4151;51.110;7.020;2023-05-07T03:02:10;13.20;99.90
8220;DHT22;4151;51.110;7.020;2023-05-07T03:04:36;13.00;99.90
8220;DHT22;4151;51.110;7.020;2023-05-07T03:07:01;13.00;99.90
8220;DHT22;4151;51.110;7.020;2023-05-07T03:09:27;12.90;99.90
8220;DHT22;4151;51.110;7.020;2023-05-07T03:11:52;12.90;99.90
8220;DHT22;4151;51.110;7.020;2023-05-07T03:14:18;12.80;99.90
8220;DHT22;4151;51.110;7.020;2023-05-07T03:16:43;12.80;99.90
8220;DHT22;4151;51.110;7.020;2023-05-07T03:19:09;12.70;99.90
8220;DHT22;4151;51.110;7.020;2023-05-07T03:21:35;12.70;99.90
8220;DHT22;4151;51.110;7.020;2023-05-07T03:24:00;12.60;99.90
8220;DHT22;4151;51.110;7.020;2023-05-07T03:26:26;12.60;99.90
8220;DHT22;4151;51.110;7.020;2023-05-07T03:28:51;12.50;99.90
8220;DHT22;4151;51.110;7.020;2023-05-07T03:31:17;12.50;99.90
8220;DHT22;4151;51.110;7.020;2023-05-07T03:34:01;12.50;99.90
8220;DHT22;4151;51.110;7.020;2023-05-07T03:36:27;12.50;99.90
8220;DHT22;4151;51.110;7.020;2023-05-07T03:38:52;12.50;99.90
8220;DHT22;4151;51.110;7.020;2023-05-07T03:41:18;12.50;99.90
8220;DHT22;4151;51.110;7.020;2023-05-07T03:43:43;12.40;99.90
8220;DHT22;4151;51.110;7.020;2023-05-07T03:46:10;12.40;99.90
8220;DHT22;4151;51.110;7.020;2023-05-07T03:48:35;12.40;99.90
8220;DHT22;4151;51.110;7.020;2023-05-07T03:51:01;12.30;99.90
8220;DHT22;4151;51.110;7.020;2023-05-07T03:53:26;12.30;99.90
8220;DHT22;4151;51.110;7.020;2023-05-07T03:55:52;12.30;99.90
8220;DHT22;4151;51.110;7.020;2023-05-07T03:58:18;12.30;99.90
8220;DHT22;4151;51.110;7.020;2023-05-07T04:00:44;12.30;99.90
8220;DHT22;4151;51.110;7.020;2023-05-07T04:03:10;12.30;99.90
8220;DHT22;4151;51.110;7.020;2023-05-07T04:05:35;12.30;99.90
8220;DHT22;4151;51.110;7.020;2023-05-07T04:08:01;12.30;99.90
8220;DHT22;4151;51.110;7.020;2023-05-07T04:10:28;12.30;99.90
8220;DHT22;4151;51.110;7.020;2023-05-07T04:12:54;12.30;99.90
8220;DHT22;4151;51.110;7.020;2023-05-07T04:15:20;12.30;99.90
8220;DHT22;4151;51.110;7.020;2023-05-07T04:17:45;12.30;99.90
8220;DHT22;4151;51.110;7.020;2023-05-07T04:20:15;12.40;99.90
8220;DHT22;4151;51.110;7.020;2023-05-07T04:22:41;12.40;99.90
8220;DHT22;4151;51.110;7.020;2023-05-07T04:25:08;12.50;99.90
8220;DHT22;4151;51.110;7.020;2023-05-07T04:27:34;12.50;99.90
8220;DHT22;4151;51.110;7.020;2023-05-07T04:30:00;12.60;99.90
8220;DHT22;4151;51.110;7.020;2023-05-07T04:32:26;12.60;99.90
8220;DHT22;4151;51.110;7.020;2023-05-07T04:34:52;12.60;99.90
8220;DHT22;4151;51.110;7.020;2023-05-07T04:37:17;12.70;99.90
8220;DHT22;4151;51.110;7.020;2023-05-07T04:39:43;12.80;99.90
8220;DHT22;4151;51.110;7.020;2023-05-07T04:42:09;12.80;99.90
8220;DHT22;4151;51.110;7.020;2023-05-07T04:44:35;12.80;99.90
8220;DHT22;4151;51.110;7.020;2023-05-07T04:47:02;12.90;99.90
8220;DHT22;4151;51.110;7.020;2023-05-07T04:49:28;12.90;99.90
8220;DHT22;4151;51.110;7.020;2023-05-07T04:51:53;12.90;99.90
8220;DHT22;4151;51.110;7.020;2023-05-07T04:54:19;13.00;99.90
8220;DHT22;4151;51.110;7.020;2023-05-07T04:56:44;13.10;99.90
8220;DHT22;4151;51.110;7.020;2023-05-07T04:59:10;13.20;99.90
8220;DHT22;4151;51.110;7.020;2023-05-07T05:01:36;13.30;99.90
8220;DHT22;4151;51.110;7.020;2023-05-07T05:04:01;13.40;99.90
8220;DHT22;4151;51.110;7.020;2023-05-07T05:06:28;13.60;99.90
8220;DHT22;4151;51.110;7.020;2023-05-07T05:08:54;13.70;99.90
8220;DHT22;4151;51.110;7.020;2023-05-07T05:11:20;13.70;99.90
8220;DHT22;4151;51.110;7.020;2023-05-07T05:13:46;13.80;99.90
8220;DHT22;4151;51.110;7.020;2023-05-07T05:16:14;13.90;99.90
8220;DHT22;4151;51.110;7.020;2023-05-07T05:18:39;13.90;99.90
8220;DHT22;4151;51.110;7.020;2023-05-07T05:21:05;14.00;99.90
8220;DHT22;4151;51.110;7.020;2023-05-07T05:23:31;14.10;99.90
8220;DHT22;4151;51.110;7.020;2023-05-07T05:25:57;14.20;99.90
8220;DHT22;4151;51.110;7.020;2023-05-07T05:28:23;14.40;99.90
8220;DHT22;4151;51.110;7.020;2023-05-07T05:30:49;14.50;99.90
8220;DHT22;4151;51.110;7.020;2023-05-07T05:33:15;14.60;99.90
8220;DHT22;4151;51.110;7.020;2023-05-07T05:35:41;14.70;99.90
8220;DHT22;4151;51.110;7.020;2023-05-07T05:38:06;14.90;99.90
8220;DHT22;4151;51.110;7.020;2023-05-07T05:40:32;15.00;99.90
8220;DHT22;4151;51.110;7.020;2023-05-07T05:42:58;15.20;99.90
8220;DHT22;4151;51.110;7.020;2023-05-07T05:45:24;15.20;99.90
8220;DHT22;4151;51.110;7.020;2023-05-07T05:47:50;15.30;99.90
8220;DHT22;4151;51.110;7.020;2023-05-07T05:50:16;15.40;99.90
8220;DHT22;4151;51.110;7.020;2023-05-07T05:52:41;15.40;99.90
8220;DHT22;4151;51.110;7.020;2023-05-07T05:55:08;15.40;99.90
8220;DHT22;4151;51.110;7.020;2023-05-07T05:57:33;15.50;99.90
8220;DHT22;4151;51.110;7.020;2023-05-07T06:00:00;15.50;99.90
8220;DHT22;4151;51.110;7.020;2023-05-07T06:02:26;15.60;99.90
8220;DHT22;4151;51.110;7.020;2023-05-07T06:04:51;15.60;99.90
8220;DHT22;4151;51.110;7.020;2023-05-07T06:07:17;15.70;99.90
8220;DHT22;4151;51.110;7.020;2023-05-07T06:09:42;15.70;99.90
8220;DHT22;4151;51.110;7.020;2023-05-07T06:12:08;15.70;99.90
8220;DHT22;4151;51.110;7.020;2023-05-07T06:14:33;15.70;99.90
8220;DHT22;4151;51.110;7.020;2023-05-07T06:16:59;15.80;99.90
8220;DHT22;4151;51.110;7.020;2023-05-07T06:19:24;16.00;99.90
8220;DHT22;4151;51.110;7.020;2023-05-07T06:21:51;16.20;99.90
8220;DHT22;4151;51.110;7.020;2023-05-07T06:24:17;16.30;99.90
8220;DHT22;4151;51.110;7.020;2023-05-07T06:26:43;16.50;99.90
8220;DHT22;4151;51.110;7.020;2023-05-07T06:29:08;16.70;99.90
8220;DHT22;4151;51.110;7.020;2023-05-07T06:31:34;16.80;99.90
8220;DHT22;4151;51.110;7.020;2023-05-07T06:33:59;16.90;99.90
8220;DHT22;4151;51.110;7.020;2023-05-07T06:36:27;17.00;99.90
8220;DHT22;4151;51.110;7.020;2023-05-07T06:38:53;17.10;99.90
8220;DHT22;4151;51.110;7.020;2023-05-07T06:41:18;17.20;99.90
8220;DHT22;4151;51.110;7.020;2023-05-07T06:43:44;17.40;99.90
8220;DHT22;4151;51.110;7.020;2023-05-07T06:46:09;17.40;99.90
8220;DHT22;4151;51.110;7.020;2023-05-07T06:48:35;17.60;99.90
8220;DHT22;4151;51.110;7.020;2023-05-07T06:51:01;17.80;99.90
8220;DHT22;4151;51.110;7.020;2023-05-07T06:53:27;18.00;99.90
8220;DHT22;4151;51.110;7.020;2023-05-07T06:55:53;18.20;99.90
8220;DHT22;4151;51.110;7.020;2023-05-07T06:58:19;18.50;99.90
8220;DHT22;4151;51.110;7.020;2023-05-07T07:00:45;18.70;99.90
8220;DHT22;4151;51.110;7.020;2023-05-07T07:03:11;18.60;99.90
8220;DHT22;4151;51.110;7.020;2023-05-07T07:05:37;18.80;99.90
8220;DHT22;4151;51.110;7.020;2023-05-07T07:08:02;19.00;99.90
8220;DHT22;4151;51.110;7.020;2023-05-07T07:10:28;19.00;99.90
8220;DHT22;4151;51.110;7.020;2023-05-07T07:12:53;18.90;99.90
8220;DHT22;4151;51.110;7.020;2023-05-07T07:15:19;18.90;99.90
8220;DHT22;4151;51.110;7.020;2023-05-07T07:17:46;18.90;99.90
8220;DHT22;4151;51.110;7.020;2023-05-07T07:20:11;19.00;99.90
8220;DHT22;4151;51.110;7.020;2023-05-07T07:22:37;19.20;99.90
8220;DHT22;4151;51.110;7.020;2023-05-07T07:25:03;19.20;99.90
8220;DHT22;4151;51.110;7.020;2023-05-07T07:27:28;19.20;99.90
8220;DHT22;4151;51.110;7.020;2023-05-07T07:29:54;19.30;99.90
8220;DHT22;4151;51.110;7.020;2023-05-07T07:32:20;19.40;99.90
8220;DHT22;4151;51.110;7.020;2023-05-07T07:34:45;19.50;99.90
8220;DHT22;4151;51.110;7.020;2023-05-07T07:37:11;19.70;99.90
8220;DHT22;4151;51.110;7.020;2023-05-07T07:39:36;20.10;99.90
8220;DHT22;4151;51.110;7.020;2023-05-07T07:42:06;20.30;99.90
8220;DHT22;4151;51.110;7.020;2023-05-07T07:44:32;20.40;99.90
8220;DHT22;4151;51.110;7.020;2023-05-07T07:46:57;20.30;99.90
8220;DHT22;4151;51.110;7.020;2023-05-07T07:49:23;20.10;99.90
8220;DHT22;4151;51.110;7.020;2023-05-07T07:51:48;20.00;99.90
8220;DHT22;4151;51.110;7.020;2023-05-07T07:54:14;20.00;99.90
8220;DHT22;4151;51.110;7.020;2023-05-07T07:56:39;20.10;99.90
8220;DHT22;4151;51.110;7.020;2023-05-07T07:59:05;20.20;99.90
8220;DHT22;4151;51.110;7.020;2023-05-07T08:01:31;20.30;99.90
8220;DHT22;4151;51.110;7.020;2023-05-07T08:03:56;20.60;99.90
8220;DHT22;4151;51.110;7.020;2023-05-07T08:06:25;20.70;99.90
8220;DHT22;4151;51.110;7.020;2023-05-07T08:08:53;20.70;99.90
8220;DHT22;4151;51.110;7.020;2023-05-07T08:11:19;20.80;99.90
8220;DHT22;4151;51.110;7.020;2023-05-07T08:13:46;20.70;99.90
8220;DHT22;4151;51.110;7.020;2023-05-07T08:16:12;20.90;99.90
8220;DHT22;4151;51.110;7.020;2023-05-07T08:18:38;21.10;99.90
8220;DHT22;4151;51.110;7.020;2023-05-07T08:21:03;21.20;99.90
8220;DHT22;4151;51.110;7.020;2023-05-07T08:23:29;21.10;99.90
8220;DHT22;4151;51.110;7.020;2023-05-07T08:25:55;21.00;99.90
8220;DHT22;4151;51.110;7.020;2023-05-07T08:28:21;21.10;99.90
8220;DHT22;4151;51.110;7.020;2023-05-07T08:30:46;21.10;99.90
8220;DHT22;4151;51.110;7.020;2023-05-07T08:33:12;21.10;99.90
8220;DHT22;4151;51.110;7.020;2023-05-07T08:35:38;21.30;99.90
8220;DHT22;4151;51.110;7.020;2023-05-07T08:38:04;21.50;99.90
8220;DHT22;4151;51.110;7.020;2023-05-07T08:40:31;21.60;99.90
8220;DHT22;4151;51.110;7.020;2023-05-07T08:43:01;21.70;99.90
8220;DHT22;4151;51.110;7.020;2023-05-07T08:45:28;21.80;99.90
8220;DHT22;4151;51.110;7.020;2023-05-07T08:47:59;21.90;99.90
8220;DHT22;4151;51.110;7.020;2023-05-07T08:50:25;21.90;99.90
8220;DHT22;4151;51.110;7.020;2023-05-07T08:52:51;21.90;99.90
8220;DHT22;4151;51.110;7.020;2023-05-07T08:55:17;21.80;99.90
8220;DHT22;4151;51.110;7.020;2023-05-07T08:57:42;21.50;99.90
8220;DHT22;4151;51.110;7.020;2023-05-07T09:00:08;21.60;99.90
8220;DHT22;4151;51.110;7.020;2023-05-07T09:02:36;21.80;99.90
8220;DHT22;4151;51.110;7.020;2023-05-07T09:05:02;22.20;99.90
8220;DHT22;4151;51.110;7.020;2023-05-07T09:07:28;22.70;99.90
8220;DHT22;4151;51.110;7.020;2023-05-07T09:09:55;23.00;99.90
8220;DHT22;4151;51.110;7.020;2023-05-07T09:12:21;23.10;99.90
8220;DHT22;4151;51.110;7.020;2023-05-07T09:14:47;23.30;99.90
8220;DHT22;4151;51.110;7.020;2023-05-07T09:17:13;23.50;99.90
8220;DHT22;4151;51.110;7.020;2023-05-07T09:19:38;23.70;99.90
8220;DHT22;4151;51.110;7.020;2023-05-07T09:22:05;23.90;99.90
8220;DHT22;4151;51.110;7.020;2023-05-07T09:24:34;23.90;99.90
8220;DHT22;4151;51.110;7.020;2023-05-07T09:27:02;24.30;99.90
8220;DHT22;4151;51.110;7.020;2023-05-07T09:29:28;24.70;99.90
8220;DHT22;4151;51.110;7.020;2023-05-07T09:31:55;24.90;99.90
8220;DHT22;4151;51.110;7.020;2023-05-07T09:34:21;24.70;99.90
8220;DHT22;4151;51.110;7.020;2023-05-07T09:36:47;24.30;99.90
8220;DHT22;4151;51.110;7.020;2023-05-07T09:39:13;24.20;99.90
8220;DHT22;4151;51.110;7.020;2023-05-07T09:41:48;24.50;99.90
8220;DHT22;4151;51.110;7.020;2023-05-07T09:44:20;25.00;99.90
8220;DHT22;4151;51.110;7.020;2023-05-07T09:46:49;24.60;99.90
8220;DHT22;4151;51.110;7.020;2023-05-07T09:49:23;24.30;99.90
8220;DHT22;4151;51.110;7.020;2023-05-07T09:51:50;24.50;99.90
8220;DHT22;4151;51.110;7.020;2023-05-07T09:54:17;24.10;99.90
8220;DHT22;4151;51.110;7.020;2023-05-07T09:56:44;24.00;99.90
8220;DHT22;4151;51.110;7.020;2023-05-07T09:59:12;24.40;99.90
8220;DHT22;4151;51.110;7.020;2023-05-07T10:01:40;24.90;99.90
8220;DHT22;4151;51.110;7.020;2023-05-07T10:04:06;25.30;99.90
8220;DHT22;4151;51.110;7.020;2023-05-07T10:06:34;25.50;99.90
8220;DHT22;4151;51.110;7.020;2023-05-07T10:09:01;25.50;99.90
8220;DHT22;4151;51.110;7.020;2023-05-07T10:11:28;25.30;99.90
8220;DHT22;4151;51.110;7.020;2023-05-07T10:13:53;25.20;99.90
8220;DHT22;4151;51.110;7.020;2023-05-07T10:16:20;26.20;99.90
8220;DHT22;4151;51.110;7.020;2023-05-07T10:18:47;27.20;99.90
8220;DHT22;4151;51.110;7.020;2023-05-07T10:21:18;28.20;99.90
8220;DHT22;4151;51.110;7.020;2023-05-07T10:23:59;29.10;99.90
8220;DHT22;4151;51.110;7.020;2023-05-07T10:26:27;28.60;99.90
8220;DHT22;4151;51.110;7.020;2023-05-07T10:28:59;28.10;99.90
8220;DHT22;4151;51.110;7.020;2023-05-07T10:34:24;27.20;99.90
8220;DHT22;4151;51.110;7.020;2023-05-07T10:36:51;27.80;99.90
8220;DHT22;4151;51.110;7.020;2023-05-07T10:39:17;28.30;99.90
8220;DHT22;4151;51.110;7.020;2023-05-07T10:41:44;28.70;99.90
8220;DHT22;4151;51.110;7.020;2023-05-07T10:44:10;28.80;99.90
8220;DHT22;4151;51.110;7.020;2023-05-07T10:46:36;28.10;99.90
8220;DHT22;4151;51.110;7.020;2023-05-07T10:51:34;29.30;99.90
8220;DHT22;4151;51.110;7.020;2023-05-07T10:56:35;27.60;99.90
8220;DHT22;4151;51.110;7.020;2023-05-07T11:04:15;26.80;99.90
8220;DHT22;4151;51.110;7.020;2023-05-07T11:15:09;27.40;99.90
8220;DHT22;4151;51.110;7.020;2023-05-07T11:17:55;27.10;99.90
8220;DHT22;4151;51.110;7.020;2023-05-07T11:20:43;26.70;99.90
8220;DHT22;4151;51.110;7.020;2023-05-07T11:23:14;27.10;99.90
8220;DHT22;4151;51.110;7.020;2023-05-07T11:26:05;27.40;99.90
8220;DHT22;4151;51.110;7.020;2023-05-07T11:28:35;27.00;99.90
8220;DHT22;4151;51.110;7.020;2023-05-07T11:31:01;26.40;99.90
8220;DHT22;4151;51.110;7.020;2023-05-07T11:33:27;26.20;99.90
8220;DHT22;4151;51.110;7.020;2023-05-07T11:35:53;26.00;99.90
8220;DHT22;4151;51.110;7.020;2023-05-07T11:38:19;26.00;99.90
8220;DHT22;4151;51.110;7.020;2023-05-07T11:40:56;26.30;99.90
8220;DHT22;4151;51.110;7.020;2023-05-07T11:43:21;26.50;99.90
8220;DHT22;4151;51.110;7.020;2023-05-07T11:45:48;27.20;99.90
8220;DHT22;4151;51.110;7.020;2023-05-07T11:48:16;28.00;99.90
8220;DHT22;4151;51.110;7.020;2023-05-07T11:50:52;29.10;99.90
8220;DHT22;4151;51.110;7.020;2023-05-07T11:53:18;30.10;99.90
8220;DHT22;4151;51.110;7.020;2023-05-07T11:55:45;30.90;99.90
8220;DHT22;4151;51.110;7.020;2023-05-07T11:58:12;31.30;99.20
8220;DHT22;4151;51.110;7.020;2023-05-07T12:00:52;32.30;96.80
8220;DHT22;4151;51.110;7.020;2023-05-07T12:03:18;32.50;94.50
8220;DHT22;4151;51.110;7.020;2023-05-07T12:05:48;32.10;93.80
8220;DHT22;4151;51.110;7.020;2023-05-07T12:08:17;32.40;94.50
8220;DHT22;4151;51.110;7.020;2023-05-07T12:10:45;32.30;92.50
8220;DHT22;4151;51.110;7.020;2023-05-07T12:13:23;31.90;94.00
8220;DHT22;4151;51.110;7.020;2023-05-07T12:15:56;31.60;92.60
8220;DHT22;4151;51.110;7.020;2023-05-07T12:18:22;31.20;93.00
8220;DHT22;4151;51.110;7.020;2023-05-07T12:20:48;30.80;94.30
8220;DHT22;4151;51.110;7.020;2023-05-07T12:23:14;30.50;97.10
8220;DHT22;4151;51.110;7.020;2023-05-07T12:25:41;29.50;96.50
8220;DHT22;4151;51.110;7.020;2023-05-07T12:28:13;28.80;97.90
8220;DHT22;4151;51.110;7.020;2023-05-07T12:30:41;29.00;98.50
8220;DHT22;4151;51.110;7.020;2023-05-07T12:33:07;28.50;98.80
8220;DHT22;4151;51.110;7.020;2023-05-07T12:35:39;27.90;99.90
8220;DHT22;4151;51.110;7.020;2023-05-07T12:38:08;27.40;99.90
8220;DHT22;4151;51.110;7.020;2023-05-07T12:40:41;27.50;99.90
8220;DHT22;4151;51.110;7.020;2023-05-07T12:43:08;28.00;99.90
8220;DHT22;4151;51.110;7.020;2023-05-07T12:45:41;27.50;99.90
8220;DHT22;4151;51.110;7.020;2023-05-07T12:48:09;27.50;99.90
8220;DHT22;4151;51.110;7.020;2023-05-07T12:50:35;27.40;99.90
8220;DHT22;4151;51.110;7.020;2023-05-07T12:53:03;27.20;99.90
8220;DHT22;4151;51.110;7.020;2023-05-07T12:55:31;27.20;99.90
8220;DHT22;4151;51.110;7.020;2023-05-07T12:57:57;26.70;99.90
8220;DHT22;4151;51.110;7.020;2023-05-07T13:00:36;26.70;99.90
8220;DHT22;4151;51.110;7.020;2023-05-07T13:03:02;26.20;99.90
8220;DHT22;4151;51.110;7.020;2023-05-07T13:05:28;25.70;99.90
8220;DHT22;4151;51.110;7.020;2023-05-07T13:07:54;25.80;99.90
8220;DHT22;4151;51.110;7.020;2023-05-07T13:10:21;25.60;99.90
8220;DHT22;4151;51.110;7.020;2023-05-07T13:12:46;25.90;99.90
8220;DHT22;4151;51.110;7.020;2023-05-07T13:15:12;25.90;99.90
8220;DHT22;4151;51.110;7.020;2023-05-07T13:17:37;26.00;99.90
8220;DHT22;4151;51.110;7.020;2023-05-07T13:20:04;26.00;99.90
8220;DHT22;4151;51.110;7.020;2023-05-07T13:22:31;26.10;99.90
8220;DHT22;4151;51.110;7.020;2023-05-07T13:24:57;25.80;99.90
8220;DHT22;4151;51.110;7.020;2023-05-07T13:27:22;25.70;99.90
8220;DHT22;4151;51.110;7.020;2023-05-07T13:29:48;25.40;99.90
8220;DHT22;4151;51.110;7.020;2023-05-07T13:32:13;25.30;99.90
8220;DHT22;4151;51.110;7.020;2023-05-07T13:34:39;25.10;99.90
8220;DHT22;4151;51.110;7.020;2023-05-07T13:37:04;24.90;99.90
8220;DHT22;4151;51.110;7.020;2023-05-07T13:39:30;24.40;99.90
8220;DHT22;4151;51.110;7.020;2023-05-07T13:41:55;23.90;99.90
8220;DHT22;4151;51.110;7.020;2023-05-07T13:44:21;23.80;99.90
8220;DHT22;4151;51.110;7.020;2023-05-07T13:46:46;23.70;99.90
8220;DHT22;4151;51.110;7.020;2023-05-07T13:49:12;23.70;99.90
8220;DHT22;4151;51.110;7.020;2023-05-07T13:51:38;23.90;99.90
8220;DHT22;4151;51.110;7.020;2023-05-07T13:54:03;24.00;99.90
8220;DHT22;4151;51.110;7.020;2023-05-07T13:56:29;24.10;99.90
8220;DHT22;4151;51.110;7.020;2023-05-07T13:58:57;24.10;99.90
8220;DHT22;4151;51.110;7.020;2023-05-07T14:01:23;24.40;99.90
8220;DHT22;4151;51.110;7.020;2023-05-07T14:03:49;24.40;99.90
8220;DHT22;4151;51.110;7.020;2023-05-07T14:06:14;24.40;99.90
8220;DHT22;4151;51.110;7.020;2023-05-07T14:08:40;24.30;99.90
8220;DHT22;4151;51.110;7.020;2023-05-07T14:11:06;24.20;99.90
8220;DHT22;4151;51.110;7.020;2023-05-07T14:13:31;24.00;99.90
8220;DHT22;4151;51.110;7.020;2023-05-07T14:15:57;23.90;99.90
8220;DHT22;4151;51.110;7.020;2023-05-07T14:18:23;23.80;99.90
8220;DHT22;4151;51.110;7.020;2023-05-07T14:20:48;23.40;99.90
8220;DHT22;4151;51.110;7.020;2023-05-07T14:23:14;23.30;99.90
8220;DHT22;4151;51.110;7.020;2023-05-07T14:25:40;23.00;99.90
8220;DHT22;4151;51.110;7.020;2023-05-07T14:28:06;23.00;99.90
8220;DHT22;4151;51.110;7.020;2023-05-07T14:30:32;23.10;99.90
8220;DHT22;4151;51.110;7.020;2023-05-07T14:32:57;23.00;99.90
8220;DHT22;4151;51.110;7.020;2023-05-07T14:35:23;22.80;99.90
8220;DHT22;4151;51.110;7.020;2023-05-07T14:37:48;22.40;99.90
8220;DHT22;4151;51.110;7.020;2023-05-07T14:40:14;22.00;99.90
8220;DHT22;4151;51.110;7.020;2023-05-07T14:42:40;21.40;99.90
8220;DHT22;4151;51.110;7.020;2023-05-07T14:45:06;20.90;99.90
8220;DHT22;4151;51.110;7.020;2023-05-07T14:47:32;20.70;99.90
8220;DHT22;4151;51.110;7.020;2023-05-07T14:49:57;20.40;99.90
8220;DHT22;4151;51.110;7.020;2023-05-07T14:52:23;20.20;99.90
8220;DHT22;4151;51.110;7.020;2023-05-07T14:54:49;20.00;99.90
8220;DHT22;4151;51.110;7.020;2023-05-07T14:57:14;20.00;99.90
8220;DHT22;4151;51.110;7.020;2023-05-07T14:59:41;20.00;99.90
8220;DHT22;4151;51.110;7.020;2023-05-07T15:02:07;20.10;99.90
8220;DHT22;4151;51.110;7.020;2023-05-07T15:04:34;20.10;99.90
8220;DHT22;4151;51.110;7.020;2023-05-07T15:07:00;20.10;99.90
8220;DHT22;4151;51.110;7.020;2023-05-07T15:09:25;19.90;99.90
8220;DHT22;4151;51.110;7.020;2023-05-07T15:11:51;19.80;99.90
8220;DHT22;4151;51.110;7.020;2023-05-07T15:14:17;19.90;99.90
8220;DHT22;4151;51.110;7.020;2023-05-07T15:16:42;19.90;99.90
8220;DHT22;4151;51.110;7.020;2023-05-07T15:19:08;19.60;99.90
8220;DHT22;4151;51.110;7.020;2023-05-07T15:21:34;19.40;99.90
8220;DHT22;4151;51.110;7.020;2023-05-07T15:24:01;19.20;99.90
8220;DHT22;4151;51.110;7.020;2023-05-07T15:26:27;19.00;99.90
8220;DHT22;4151;51.110;7.020;2023-05-07T15:28:52;18.80;99.90
8220;DHT22;4151;51.110;7.020;2023-05-07T15:31:18;18.60;99.90
8220;DHT22;4151;51.110;7.020;2023-05-07T15:33:43;18.40;99.90
8220;DHT22;4151;51.110;7.020;2023-05-07T15:36:10;18.30;99.90
8220;DHT22;4151;51.110;7.020;2023-05-07T15:38:37;18.20;99.90
8220;DHT22;4151;51.110;7.020;2023-05-07T15:41:02;18.10;99.90
8220;DHT22;4151;51.110;7.020;2023-05-07T15:43:28;18.00;99.90
8220;DHT22;4151;51.110;7.020;2023-05-07T15:45:54;18.10;99.90
8220;DHT22;4151;51.110;7.020;2023-05-07T15:48:20;18.10;99.90
8220;DHT22;4151;51.110;7.020;2023-05-07T15:50:45;18.10;99.90
8220;DHT22;4151;51.110;7.020;2023-05-07T15:53:11;18.10;99.90
8220;DHT22;4151;51.110;7.020;2023-05-07T15:55:39;18.20;99.90
8220;DHT22;4151;51.110;7.020;2023-05-07T15:58:05;18.40;99.90
8220;DHT22;4151;51.110;7.020;2023-05-07T16:00:31;18.70;99.90
8220;DHT22;4151;51.110;7.020;2023-05-07T16:02:57;18.90;99.90
8220;DHT22;4151;51.110;7.020;2023-05-07T16:05:22;19.20;99.90
8220;DHT22;4151;51.110;7.020;2023-05-07T16:07:48;19.60;99.90
8220;DHT22;4151;51.110;7.020;2023-05-07T16:10:14;19.90;99.90
8220;DHT22;4151;51.110;7.020;2023-05-07T16:12:40;20.10;99.90
8220;DHT22;4151;51.110;7.020;2023-05-07T16:15:06;20.30;99.90
8220;DHT22;4151;51.110;7.020;2023-05-07T16:17:32;20.50;99.90
8220;DHT22;4151;51.110;7.020;2023-05-07T16:19:57;20.70;99.90